createdAt,value
2017-07-29T00:00:36.278Z,8.93
2017-07-29T00:03:03.560Z,8.90
2017-07-29T00:05:30.876Z,8.70
2017-07-29T00:07:58.478Z,9.20
2017-07-29T00:10:26.791Z,8.90
2017-07-29T00:12:54.388Z,9.00
2017-07-29T00:15:21.699Z,9.30
2017-07-29T00:17:48.998Z,8.80
2017-07-29T00:20:16.319Z,9.20
2017-07-29T00:22:43.623Z,9.70
2017-07-29T00:25:11.006Z,9.83
2017-07-29T00:27:38.322Z,8.97
2017-07-29T00:30:05.792Z,8.70
2017-07-29T00:32:33.272Z,9.70
2017-07-29T00:35:01.172Z,9.10
2017-07-29T00:37:28.494Z,9.23
2017-07-29T00:39:55.779Z,8.37
2017-07-29T00:42:23.620Z,9.33
2017-07-29T00:44:50.931Z,9.00
2017-07-29T00:47:18.237Z,8.80
2017-07-29T00:49:45.549Z,9.10
2017-07-29T00:52:12.867Z,9.37
2017-07-29T00:54:40.162Z,9.03
2017-07-29T00:57:07.467Z,9.20
2017-07-29T00:59:34.917Z,8.70
2017-07-29T01:02:02.204Z,8.47
2017-07-29T01:04:29.516Z,9.47
2017-07-29T01:06:56.829Z,9.70
2017-07-29T01:09:24.149Z,9.07
2017-07-29T01:11:51.431Z,8.20
2017-07-29T01:14:18.771Z,9.43
2017-07-29T01:16:46.084Z,9.40
2017-07-29T01:19:13.409Z,9.00
2017-07-29T01:21:40.713Z,9.10
2017-07-29T01:24:08.038Z,8.73
2017-07-29T01:26:35.352Z,8.90
2017-07-29T01:29:02.652Z,9.20
2017-07-29T01:31:29.973Z,9.50
2017-07-29T01:33:57.267Z,9.17
2017-07-29T01:36:24.575Z,9.30
2017-07-29T01:38:52.067Z,8.83
2017-07-29T01:41:19.398Z,9.13
2017-07-29T01:43:46.707Z,9.03
2017-07-29T01:46:14.195Z,8.93
2017-07-29T01:48:41.501Z,8.73
2017-07-29T01:51:09.821Z,8.60
2017-07-29T01:53:37.641Z,9.53
2017-07-29T01:56:04.953Z,9.23
2017-07-29T01:58:32.479Z,9.07
2017-07-29T02:01:00.717Z,10.20
2017-07-29T02:03:28.008Z,8.10
2017-07-29T02:05:55.487Z,9.60
2017-07-29T02:08:23.221Z,9.00
2017-07-29T02:10:50.508Z,8.33
2017-07-29T02:13:17.815Z,8.43
2017-07-29T02:15:45.212Z,9.53
2017-07-29T02:18:12.513Z,9.27
2017-07-29T02:20:39.837Z,8.43
2017-07-29T02:23:07.134Z,8.30
2017-07-29T02:25:34.447Z,9.30
2017-07-29T02:28:01.780Z,9.20
2017-07-29T02:30:29.087Z,9.30
2017-07-29T02:32:56.403Z,9.00
2017-07-29T02:35:23.702Z,9.57
2017-07-29T02:37:51.049Z,9.23
2017-07-29T02:40:18.351Z,8.60
2017-07-29T02:42:45.668Z,8.90
2017-07-29T02:45:12.956Z,8.87
2017-07-29T02:47:40.301Z,9.53
2017-07-29T02:50:07.633Z,8.63
2017-07-29T02:52:34.970Z,9.50
2017-07-29T02:55:02.317Z,8.97
2017-07-29T02:57:29.629Z,9.30
2017-07-29T02:59:56.959Z,9.07
2017-07-29T03:02:24.256Z,9.17
2017-07-29T03:04:51.584Z,8.43
2017-07-29T03:07:18.906Z,9.47
2017-07-29T03:09:46.215Z,9.43
2017-07-29T03:12:13.511Z,9.10
2017-07-29T03:14:40.925Z,9.00
2017-07-29T03:17:08.215Z,9.30
2017-07-29T03:19:36.472Z,10.27
2017-07-29T03:22:03.767Z,9.30
2017-07-29T03:24:31.052Z,9.30
2017-07-29T03:26:58.359Z,9.43
2017-07-29T03:29:25.892Z,9.50
2017-07-29T03:31:53.199Z,9.20
2017-07-29T03:34:20.669Z,9.50
2017-07-29T03:36:49.074Z,9.13
2017-07-29T03:39:16.883Z,10.17
2017-07-29T03:41:44.264Z,9.50
2017-07-29T03:44:11.589Z,9.23
2017-07-29T03:46:38.891Z,9.77
2017-07-29T03:49:06.194Z,9.67
2017-07-29T03:51:33.512Z,8.83
2017-07-29T03:54:00.821Z,9.73
2017-07-29T03:56:28.118Z,9.47
2017-07-29T03:58:55.448Z,9.17
2017-07-29T04:01:23.079Z,10.10
2017-07-29T04:03:50.434Z,8.93
2017-07-29T04:06:17.756Z,8.63
2017-07-29T04:08:45.088Z,9.10
2017-07-29T04:11:12.380Z,8.97
2017-07-29T04:13:39.689Z,9.73
2017-07-29T04:16:07.011Z,8.53
2017-07-29T04:18:34.332Z,9.03
2017-07-29T04:21:01.936Z,8.70
2017-07-29T04:23:29.236Z,8.80
2017-07-29T04:25:56.537Z,8.70
2017-07-29T04:28:23.861Z,9.60
2017-07-29T04:30:51.181Z,8.17
2017-07-29T04:33:18.534Z,8.90
2017-07-29T04:35:45.861Z,8.20
2017-07-29T04:38:13.197Z,9.37
2017-07-29T04:40:40.499Z,8.83
2017-07-29T04:43:07.805Z,8.30
2017-07-29T04:45:35.161Z,9.20
2017-07-29T04:48:02.489Z,8.60
2017-07-29T04:50:29.824Z,8.30
2017-07-29T04:52:57.150Z,7.77
2017-07-29T04:55:24.508Z,8.27
2017-07-29T04:57:51.835Z,8.60
2017-07-29T05:00:19.131Z,8.20
2017-07-29T05:02:46.437Z,8.20
2017-07-29T05:05:13.747Z,8.53
2017-07-29T05:07:41.058Z,8.57
2017-07-29T05:10:08.361Z,8.20
2017-07-29T05:12:35.663Z,7.60
2017-07-29T05:15:02.962Z,8.30
2017-07-29T05:17:30.276Z,7.70
2017-07-29T05:19:57.596Z,7.70
2017-07-29T05:22:24.911Z,7.60
2017-07-29T05:24:52.210Z,7.47
2017-07-29T05:27:19.504Z,7.73
2017-07-29T05:29:46.941Z,7.50
2017-07-29T05:32:14.252Z,7.83
2017-07-29T05:34:41.544Z,7.13
2017-07-29T05:37:08.890Z,7.60
2017-07-29T05:39:36.194Z,7.80
2017-07-29T05:42:03.521Z,7.50
2017-07-29T05:44:30.808Z,7.17
2017-07-29T05:46:58.154Z,6.87
2017-07-29T05:49:25.486Z,7.60
2017-07-29T05:51:52.810Z,6.50
2017-07-29T05:54:20.151Z,6.53
2017-07-29T05:56:47.436Z,6.67
2017-07-29T05:59:14.751Z,6.90
2017-07-29T06:01:42.071Z,7.07
2017-07-29T06:04:09.392Z,6.20
2017-07-29T06:06:36.693Z,6.53
2017-07-29T06:09:04.026Z,6.47
2017-07-29T06:11:31.327Z,6.50
2017-07-29T06:13:58.640Z,6.20
2017-07-29T06:16:25.961Z,7.03
2017-07-29T06:18:53.271Z,6.30
2017-07-29T06:21:20.629Z,6.53
2017-07-29T06:23:47.963Z,6.50
2017-07-29T06:26:15.277Z,6.40
2017-07-29T06:28:42.568Z,6.90
2017-07-29T06:31:09.909Z,6.10
2017-07-29T06:33:37.191Z,6.70
2017-07-29T06:36:04.503Z,6.67
2017-07-29T06:38:31.999Z,6.27
2017-07-29T06:40:59.349Z,6.10
2017-07-29T06:43:26.673Z,6.53
2017-07-29T06:45:53.976Z,5.93
2017-07-29T06:48:21.270Z,6.43
2017-07-29T06:50:48.599Z,5.90
2017-07-29T06:53:15.932Z,5.77
2017-07-29T06:55:43.235Z,6.27
2017-07-29T06:58:10.536Z,5.60
2017-07-29T07:00:38.321Z,5.50
2017-07-29T07:03:05.623Z,6.23
2017-07-29T07:05:33.206Z,5.70
2017-07-29T07:08:00.515Z,5.77
2017-07-29T07:10:27.848Z,5.60
2017-07-29T07:12:55.202Z,5.10
2017-07-29T07:15:22.526Z,5.43
2017-07-29T07:17:49.889Z,5.20
2017-07-29T07:20:17.204Z,5.50
2017-07-29T07:22:44.505Z,5.57
2017-07-29T07:25:11.787Z,5.27
2017-07-29T07:27:39.088Z,5.10
2017-07-29T07:30:06.422Z,5.13
2017-07-29T07:32:33.753Z,5.00
2017-07-29T07:35:01.057Z,5.40
2017-07-29T07:37:28.371Z,4.73
2017-07-29T07:39:55.671Z,5.37
2017-07-29T07:42:22.956Z,5.10
2017-07-29T07:44:50.269Z,4.60
2017-07-29T07:47:17.569Z,5.30
2017-07-29T07:49:44.896Z,4.83
2017-07-29T07:52:12.229Z,5.30
2017-07-29T07:54:39.546Z,5.47
2017-07-29T07:57:06.823Z,5.20
2017-07-29T07:59:34.128Z,4.67
2017-07-29T08:02:01.431Z,4.80
2017-07-29T08:04:28.767Z,5.03
2017-07-29T08:06:56.071Z,4.87
2017-07-29T08:09:23.404Z,4.43
2017-07-29T08:11:50.721Z,4.67
2017-07-29T08:14:18.011Z,4.60
2017-07-29T08:16:45.353Z,4.60
2017-07-29T08:19:12.698Z,4.90
2017-07-29T08:21:40.011Z,5.00
2017-07-29T08:24:07.309Z,4.90
2017-07-29T08:26:34.615Z,4.20
2017-07-29T08:29:02.136Z,4.63
2017-07-29T08:31:29.441Z,4.67
2017-07-29T08:33:56.738Z,4.00
2017-07-29T08:36:24.071Z,4.20
2017-07-29T08:38:51.382Z,3.70
2017-07-29T08:41:18.676Z,3.47
2017-07-29T08:43:45.995Z,4.10
2017-07-29T08:46:13.301Z,4.03
2017-07-29T08:48:40.621Z,3.37
2017-07-29T08:51:07.916Z,4.30
2017-07-29T08:53:35.255Z,4.00
2017-07-29T08:56:02.550Z,4.20
2017-07-29T08:58:29.869Z,3.87
2017-07-29T09:00:57.151Z,4.27
2017-07-29T09:03:24.444Z,4.20
2017-07-29T09:05:51.756Z,4.30
2017-07-29T09:08:19.083Z,4.03
2017-07-29T09:10:46.472Z,4.00
2017-07-29T09:13:13.833Z,3.70
2017-07-29T09:15:41.137Z,3.80
2017-07-29T09:18:08.461Z,4.10
2017-07-29T09:20:35.893Z,4.17
2017-07-29T09:23:03.179Z,3.60
2017-07-29T09:25:30.503Z,3.50
2017-07-29T09:27:57.823Z,4.13
2017-07-29T09:30:25.112Z,3.93
2017-07-29T09:32:52.421Z,4.37
2017-07-29T09:35:19.711Z,3.50
2017-07-29T09:37:47.022Z,3.93
2017-07-29T09:40:14.307Z,4.27
2017-07-29T09:42:41.618Z,3.73
2017-07-29T09:45:08.906Z,3.90
2017-07-29T09:47:36.220Z,3.80
2017-07-29T09:50:03.507Z,3.90
2017-07-29T09:52:30.899Z,3.70
2017-07-29T09:54:58.172Z,4.07
2017-07-29T09:57:25.505Z,3.60
2017-07-29T09:59:52.817Z,3.80
2017-07-29T10:02:20.104Z,4.03
2017-07-29T10:04:47.444Z,3.50
2017-07-29T10:07:14.764Z,3.63
2017-07-29T10:09:42.076Z,3.90
2017-07-29T10:12:09.382Z,3.83
2017-07-29T10:14:36.697Z,4.27
2017-07-29T10:17:04.039Z,3.60
2017-07-29T10:19:31.420Z,3.80
2017-07-29T10:21:58.763Z,3.50
2017-07-29T10:24:26.153Z,3.60
2017-07-29T10:26:53.543Z,3.60
2017-07-29T10:29:20.991Z,3.60
2017-07-29T10:31:48.422Z,3.20
2017-07-29T10:34:15.779Z,3.13
2017-07-29T10:36:43.075Z,3.40
2017-07-29T10:39:10.471Z,3.17
2017-07-29T10:41:37.850Z,3.50
2017-07-29T10:44:05.201Z,3.23
2017-07-29T10:46:32.516Z,3.60
2017-07-29T10:48:59.968Z,3.50
2017-07-29T10:51:27.262Z,3.43
2017-07-29T10:53:54.577Z,3.30
2017-07-29T10:56:21.887Z,3.80
2017-07-29T10:58:49.197Z,3.40
2017-07-29T11:01:16.484Z,4.10
2017-07-29T11:03:43.794Z,3.47
2017-07-29T11:06:11.115Z,3.50
2017-07-29T11:08:38.417Z,3.40
2017-07-29T11:11:05.723Z,3.67
2017-07-29T11:13:33.052Z,3.57
2017-07-29T11:16:00.335Z,3.10
2017-07-29T11:18:27.661Z,3.80
2017-07-29T11:20:54.968Z,3.33
2017-07-29T11:23:22.278Z,3.47
2017-07-29T11:25:50.519Z,3.40
2017-07-29T11:28:17.836Z,3.30
2017-07-29T11:30:45.145Z,3.67
2017-07-29T11:33:12.432Z,3.50
2017-07-29T11:35:39.753Z,3.30
2017-07-29T11:38:07.107Z,3.80
2017-07-29T11:40:34.447Z,3.70
2017-07-29T11:43:01.743Z,3.60
2017-07-29T11:45:29.039Z,3.30
2017-07-29T11:47:56.429Z,3.80
2017-07-29T11:50:23.703Z,3.57
2017-07-29T11:52:51.033Z,4.03
2017-07-29T11:55:18.320Z,3.87
2017-07-29T11:57:45.619Z,3.07
2017-07-29T12:00:12.907Z,3.27
2017-07-29T12:02:40.241Z,3.50
2017-07-29T12:05:07.560Z,3.40
2017-07-29T12:07:34.893Z,3.17
2017-07-29T12:10:02.440Z,3.50
2017-07-29T12:12:29.719Z,3.07
2017-07-29T12:14:57.041Z,3.17
2017-07-29T12:17:24.368Z,3.47
2017-07-29T12:19:51.683Z,3.57
2017-07-29T12:22:18.981Z,3.97
2017-07-29T12:24:46.292Z,3.63
2017-07-29T12:27:13.585Z,3.87
2017-07-29T12:29:40.883Z,3.70
2017-07-29T12:32:08.192Z,3.90
2017-07-29T12:34:35.515Z,3.80
2017-07-29T12:37:02.805Z,3.33
2017-07-29T12:39:30.133Z,3.50
2017-07-29T12:41:57.432Z,3.60
2017-07-29T12:44:24.795Z,3.63
2017-07-29T12:46:52.132Z,3.23
2017-07-29T12:49:19.419Z,3.57
2017-07-29T12:51:46.815Z,3.07
2017-07-29T12:54:14.093Z,3.93
2017-07-29T12:56:41.447Z,3.40
2017-07-29T12:59:08.726Z,3.17
2017-07-29T13:01:36.038Z,3.60
2017-07-29T13:04:03.343Z,3.73
2017-07-29T13:06:30.684Z,3.30
2017-07-29T13:08:57.993Z,3.27
2017-07-29T13:11:25.285Z,2.90
2017-07-29T13:13:52.617Z,4.00
2017-07-29T13:16:19.913Z,3.10
2017-07-29T13:18:47.215Z,3.03
2017-07-29T13:21:14.512Z,3.00
2017-07-29T13:23:41.836Z,3.20
2017-07-29T13:26:09.129Z,2.80
2017-07-29T13:28:36.435Z,3.03
2017-07-29T13:31:03.727Z,2.70
2017-07-29T13:33:31.015Z,3.07
2017-07-29T13:35:58.341Z,2.90
2017-07-29T13:38:25.635Z,3.03
2017-07-29T13:40:52.961Z,2.70
2017-07-29T13:43:20.264Z,2.70
2017-07-29T13:45:47.580Z,2.80
2017-07-29T13:48:14.854Z,2.47
2017-07-29T13:50:42.221Z,2.90
2017-07-29T13:53:09.646Z,2.80
2017-07-29T13:55:36.981Z,2.90
2017-07-29T13:58:04.283Z,3.07
2017-07-29T14:00:31.569Z,2.70
2017-07-29T14:02:58.889Z,3.10
2017-07-29T14:05:26.339Z,2.90
2017-07-29T14:07:53.699Z,2.90
2017-07-29T14:10:21.038Z,3.30
2017-07-29T14:12:48.348Z,2.80
2017-07-29T14:15:15.647Z,2.97
2017-07-29T14:17:42.975Z,2.50
2017-07-29T14:20:10.301Z,2.80
2017-07-29T14:22:37.592Z,2.60
2017-07-29T14:25:04.908Z,2.63
2017-07-29T14:27:32.525Z,2.70
2017-07-29T14:29:59.980Z,2.63
2017-07-29T14:32:27.312Z,2.77
2017-07-29T14:34:54.615Z,2.60
2017-07-29T14:37:21.916Z,2.50
2017-07-29T14:39:49.225Z,2.80
2017-07-29T14:42:16.521Z,2.30
2017-07-29T14:44:43.842Z,2.80
2017-07-29T14:47:11.152Z,2.70
2017-07-29T14:49:38.431Z,2.70
2017-07-29T14:52:05.744Z,3.00
2017-07-29T14:54:33.059Z,3.03
2017-07-29T14:57:00.367Z,3.40
2017-07-29T14:59:27.655Z,2.90
2017-07-29T15:01:54.965Z,3.03
2017-07-29T15:04:22.281Z,3.80
2017-07-29T15:06:49.908Z,3.30
2017-07-29T15:09:17.580Z,3.10
2017-07-29T15:11:44.877Z,2.83
2017-07-29T15:14:12.188Z,3.10
2017-07-29T15:16:39.472Z,3.23
2017-07-29T15:19:06.808Z,2.90
2017-07-29T15:21:34.137Z,2.70
2017-07-29T15:24:01.451Z,2.77
2017-07-29T15:26:28.749Z,2.60
2017-07-29T15:28:56.089Z,2.67
2017-07-29T15:31:23.414Z,2.83
2017-07-29T15:33:50.782Z,2.60
2017-07-29T15:36:18.087Z,2.97
2017-07-29T15:38:45.423Z,2.90
2017-07-29T15:41:12.741Z,2.70
2017-07-29T15:43:40.027Z,2.87
2017-07-29T15:46:07.452Z,3.27
2017-07-29T15:48:34.750Z,3.30
2017-07-29T15:51:02.068Z,3.20
2017-07-29T15:53:29.365Z,3.03
2017-07-29T15:55:56.676Z,2.80
2017-07-29T15:58:23.955Z,2.63
2017-07-29T16:00:51.353Z,3.10
2017-07-29T16:03:18.636Z,3.00
2017-07-29T16:05:45.915Z,2.80
2017-07-29T16:08:13.228Z,3.07
2017-07-29T16:10:40.544Z,3.00
2017-07-29T16:13:07.860Z,3.00
2017-07-29T16:15:35.161Z,2.83
2017-07-29T16:18:03.003Z,3.03
2017-07-29T16:20:30.324Z,3.13
2017-07-29T16:22:58.461Z,2.90
2017-07-29T16:25:25.736Z,3.90
2017-07-29T16:27:53.068Z,5.00
2017-07-29T16:30:20.343Z,5.13
2017-07-29T16:32:47.650Z,5.50
2017-07-29T16:35:14.947Z,4.17
2017-07-29T16:37:42.253Z,5.00
2017-07-29T16:40:09.575Z,3.70
2017-07-29T16:42:36.924Z,3.30
2017-07-29T16:45:04.258Z,3.57
2017-07-29T16:47:31.539Z,3.23
2017-07-29T16:49:58.872Z,5.73
2017-07-29T16:52:26.177Z,4.40
2017-07-29T16:54:53.473Z,4.00
2017-07-29T16:57:20.785Z,3.20
2017-07-29T16:59:48.086Z,3.13
2017-07-29T17:02:15.397Z,3.27
2017-07-29T17:04:42.683Z,3.10
2017-07-29T17:07:10.055Z,3.13
2017-07-29T17:09:37.557Z,3.27
2017-07-29T17:12:04.863Z,3.07
2017-07-29T17:14:32.174Z,4.00
2017-07-29T17:16:59.568Z,2.87
2017-07-29T17:19:26.849Z,2.87
2017-07-29T17:21:54.150Z,3.13
2017-07-29T17:24:21.473Z,3.10
2017-07-29T17:26:48.773Z,3.27
2017-07-29T17:29:16.187Z,4.00
2017-07-29T17:31:43.463Z,3.37
2017-07-29T17:34:10.777Z,3.50
2017-07-29T17:36:38.105Z,3.37
2017-07-29T17:39:05.404Z,4.47
2017-07-29T17:41:32.989Z,4.10
2017-07-29T17:44:00.326Z,3.73
2017-07-29T17:46:27.618Z,3.50
2017-07-29T17:48:54.921Z,4.20
2017-07-29T17:51:22.229Z,3.93
2017-07-29T17:53:49.516Z,4.00
2017-07-29T17:56:16.866Z,4.00
2017-07-29T17:58:44.173Z,4.10
2017-07-29T18:01:11.479Z,4.43
2017-07-29T18:03:38.772Z,4.10
2017-07-29T18:06:06.125Z,4.30
2017-07-29T18:08:33.444Z,4.23
2017-07-29T18:11:00.760Z,4.30
2017-07-29T18:13:28.053Z,4.47
2017-07-29T18:15:55.381Z,4.23
2017-07-29T18:18:22.704Z,5.00
2017-07-29T18:20:49.989Z,3.93
2017-07-29T18:23:17.313Z,4.87
2017-07-29T18:25:44.633Z,5.37
2017-07-29T18:28:11.990Z,4.10
2017-07-29T18:30:39.316Z,4.40
2017-07-29T18:33:06.635Z,3.97
2017-07-29T18:35:33.925Z,4.27
2017-07-29T18:38:01.255Z,4.10
2017-07-29T18:40:28.595Z,4.60
2017-07-29T18:42:55.988Z,4.40
2017-07-29T18:45:23.259Z,4.50
2017-07-29T18:47:50.539Z,4.63
2017-07-29T18:50:17.856Z,4.43
2017-07-29T18:52:45.196Z,4.50
2017-07-29T18:55:12.523Z,5.13
2017-07-29T18:57:39.865Z,5.10
2017-07-29T19:00:07.212Z,5.03
2017-07-29T19:02:34.537Z,4.90
2017-07-29T19:05:01.872Z,4.83
2017-07-29T19:07:29.242Z,4.93
2017-07-29T19:09:56.534Z,5.30
2017-07-29T19:12:23.929Z,5.90
2017-07-29T19:14:51.258Z,6.10
2017-07-29T19:17:18.630Z,6.30
2017-07-29T19:19:45.927Z,6.30
2017-07-29T19:22:13.253Z,8.30
2017-07-29T19:24:40.558Z,7.37
2017-07-29T19:27:07.904Z,6.53
2017-07-29T19:29:35.211Z,7.20
2017-07-29T19:32:02.560Z,8.47
2017-07-29T19:34:29.874Z,12.23
2017-07-29T19:36:57.185Z,10.17
2017-07-29T19:39:24.509Z,7.53
2017-07-29T19:41:51.856Z,7.93
2017-07-29T19:44:19.171Z,8.27
2017-07-29T19:46:46.488Z,7.60
2017-07-29T19:49:13.835Z,8.33
2017-07-29T19:51:41.165Z,8.87
2017-07-29T19:54:08.542Z,8.77
2017-07-29T19:56:35.841Z,8.97
2017-07-29T19:59:03.239Z,8.07
2017-07-29T20:01:30.526Z,7.40
2017-07-29T20:03:57.855Z,7.13
2017-07-29T20:06:25.167Z,6.60
2017-07-29T20:08:52.456Z,7.03
2017-07-29T20:11:19.827Z,7.10
2017-07-29T20:13:47.124Z,6.07
2017-07-29T20:16:14.435Z,6.07
2017-07-29T20:18:41.738Z,6.03
2017-07-29T20:21:09.081Z,6.17
2017-07-29T20:23:36.406Z,6.33
2017-07-29T20:26:03.764Z,6.67
2017-07-29T20:28:31.102Z,6.87
2017-07-29T20:30:58.441Z,7.30
2017-07-29T20:33:25.789Z,7.37
2017-07-29T20:35:53.412Z,6.90
2017-07-29T20:38:20.776Z,8.00
2017-07-29T20:40:48.108Z,11.73
2017-07-29T20:43:15.458Z,8.00
2017-07-29T20:45:42.787Z,7.50
2017-07-29T20:48:10.267Z,7.60
2017-07-29T20:50:37.894Z,7.90
2017-07-29T20:53:05.224Z,7.63
2017-07-29T20:55:32.574Z,7.93
2017-07-29T20:57:59.884Z,7.80
2017-07-29T21:00:27.201Z,7.87
2017-07-29T21:02:54.505Z,8.60
2017-07-29T21:05:21.829Z,7.57
2017-07-29T21:07:49.162Z,7.23
2017-07-29T21:10:16.640Z,7.20
2017-07-29T21:12:43.936Z,6.87
2017-07-29T21:15:11.238Z,7.57
2017-07-29T21:17:38.537Z,7.30
2017-07-29T21:20:05.853Z,7.40
2017-07-29T21:22:33.313Z,8.30
2017-07-29T21:25:00.655Z,8.00
2017-07-29T21:27:28.011Z,8.80
2017-07-29T21:29:55.304Z,8.33
2017-07-29T21:32:22.611Z,8.00
2017-07-29T21:34:49.902Z,8.70
2017-07-29T21:37:17.207Z,8.77
2017-07-29T21:39:44.592Z,8.33
2017-07-29T21:42:11.953Z,6.80
2017-07-29T21:44:39.300Z,7.57
2017-07-29T21:47:07.515Z,7.47
2017-07-29T21:49:34.839Z,6.53
2017-07-29T21:52:02.131Z,7.03
2017-07-29T21:54:29.483Z,7.60
2017-07-29T21:56:56.793Z,7.23
2017-07-29T21:59:24.121Z,6.87
2017-07-29T22:01:51.427Z,6.90
2017-07-29T22:04:18.745Z,6.47
2017-07-29T22:06:46.058Z,7.67
2017-07-29T22:09:13.433Z,7.70
2017-07-29T22:11:40.745Z,8.27
2017-07-29T22:14:08.089Z,7.87
2017-07-29T22:16:35.454Z,7.40
2017-07-29T22:19:02.783Z,8.07
2017-07-29T22:21:30.125Z,7.63
2017-07-29T22:23:57.441Z,7.80
2017-07-29T22:26:24.769Z,8.50
2017-07-29T22:28:52.086Z,8.10
2017-07-29T22:31:19.396Z,7.40
2017-07-29T22:33:46.695Z,8.13
2017-07-29T22:36:14.027Z,8.47
2017-07-29T22:38:41.319Z,7.73
2017-07-29T22:41:08.639Z,8.37
2017-07-29T22:43:35.949Z,8.00
2017-07-29T22:46:03.251Z,8.27
2017-07-29T22:48:30.578Z,8.37
2017-07-29T22:50:57.922Z,7.70
2017-07-29T22:53:25.251Z,8.13
2017-07-29T22:55:52.559Z,7.60
2017-07-29T22:58:19.878Z,9.43
2017-07-29T23:00:47.166Z,8.23
2017-07-29T23:03:14.542Z,8.50
2017-07-29T23:05:41.841Z,8.00
2017-07-29T23:08:09.178Z,8.83
2017-07-29T23:10:36.494Z,8.00
2017-07-29T23:13:03.778Z,8.17
2017-07-29T23:15:31.137Z,8.53
2017-07-29T23:17:58.445Z,8.03
2017-07-29T23:20:25.796Z,7.90
2017-07-29T23:22:53.134Z,8.37
2017-07-29T23:25:20.485Z,8.60
2017-07-29T23:27:47.824Z,8.17
2017-07-29T23:30:15.197Z,8.70
2017-07-29T23:32:42.521Z,7.70
2017-07-29T23:35:09.852Z,8.57
2017-07-29T23:37:37.199Z,8.53
2017-07-29T23:40:04.521Z,8.80
2017-07-29T23:42:31.891Z,8.70
2017-07-29T23:44:59.196Z,8.07
2017-07-29T23:47:26.513Z,8.40
2017-07-29T23:49:53.826Z,8.40
2017-07-29T23:52:21.155Z,9.90
2017-07-29T23:54:48.467Z,8.90
2017-07-29T23:57:15.855Z,8.37
2017-07-29T23:59:43.151Z,7.93
